CDT,Max TemperatureF,Mean TemperatureF,Min TemperatureF,Max Dew PointF,MeanDew PointF,Min DewpointF,Max Humidity, Mean Humidity, Min Humidity, Max Sea Level PressureIn, Mean Sea Level PressureIn, Min Sea Level PressureIn, Max VisibilityMiles, Mean VisibilityMiles, Min VisibilityMiles, Max Wind SpeedMPH, Mean Wind SpeedMPH, Max Gust SpeedMPH,PrecipitationIn, CloudCover, Events, WindDirDegrees
2013-3-1,28,26,24,21,19,14,80,73,64,30.30,30.21,30.13,10,8,2,13,9,18,0.01,8,Snow,353
2013-3-2,30,22,15,16,13,9,80,66,47,30.31,30.26,30.18,10,10,10,14,7,,0.00,2,,328
2013-3-3,35,27,19,23,17,12,80,65,48,30.18,30.03,29.91,10,10,2,15,7,22,0.00,6,Snow,131
2013-3-4,39,34,28,28,26,23,86,76,65,29.93,29.84,29.78,10,9,2,16,11,23,0.01,5,Snow,97
2013-3-5,32,29,26,27,23,19,86,77,64,30.26,30.04,29.92,10,7,1,25,10,36,0.00,8,Snow,310
2013-3-6,30,24,19,21,17,14,86,72,59,30.40,30.35,30.26,10,10,10,17,11,24,0.00,4,,348
2013-3-7,33,24,15,21,17,10,86,74,56,30.36,30.32,30.26,10,7,1,13,5,16,0.00,0,,111
2013-3-8,46,34,23,32,25,18,86,72,49,30.29,30.21,30.05,10,8,4,18,10,24,0.00,2,Rain,125
2013-3-9,44,40,37,41,35,30,93,85,70,30.05,29.82,29.62,10,5,2,16,12,33,1.10,8,Rain,142
2013-3-10,44,38,32,39,33,28,93,87,81,29.73,29.67,29.61,10,5,0,13,6,18,0.54,8,Fog-Rain,342
2013-3-11,32,28,24,28,24,19,93,85,74,29.94,29.79,29.68,10,8,2,23,14,28,0.01,8,Rain-Snow,297
2013-3-12,33,27,21,27,21,16,86,76,60,30.23,30.06,29.93,10,10,2,29,15,38,0.00,5,Snow,284
2013-3-13,35,26,17,18,15,12,80,62,44,30.43,30.35,30.23,10,10,10,21,12,29,0.00,0,,302
2013-3-14,53,40,26,36,27,18,81,64,44,30.31,30.13,30.06,10,10,5,13,7,,0.00,2,Rain-Snow,185
2013-3-15,60,45,30,45,34,27,87,75,52,30.06,29.84,29.71,10,7,4,13,4,,0.00,0,,90
2013-3-16,37,32,28,34,25,19,87,72,56,30.17,30.01,29.77,10,8,3,24,12,30,0.00,7,,349
2013-3-17,39,31,23,27,21,16,80,67,56,30.17,30.02,29.83,10,10,7,17,11,23,0.00,3,,80
2013-3-18,35,28,21,30,22,12,87,72,55,29.98,29.82,29.72,10,7,0,30,12,41,0.18,6,Snow,281
2013-3-19,39,28,17,19,11,3,74,53,31,30.22,30.13,29.97,10,10,10,20,12,26,0.00,1,,300
2013-3-20,28,22,15,19,6,-2,74,52,31,30.31,30.23,30.13,10,10,5,23,16,32,0.00,3,Snow,317
2013-3-21,37,24,10,16,8,3,74,54,28,30.12,30.05,29.96,10,10,10,9,5,,0.00,0,,53
2013-3-22,39,29,19,21,15,12,80,58,33,30.07,30.03,29.98,10,10,10,8,5,,0.00,2,,63
2013-3-23,39,34,28,27,21,16,86,63,39,30.11,30.05,29.98,10,9,2,15,7,23,0.00,6,Snow,23
2013-3-24,30,29,28,27,25,25,86,85,80,30.01,29.92,29.86,4,2,0,20,12,24,0.00,8,Snow,345
2013-3-25,35,30,26,25,21,19,86,71,52,30.24,30.07,29.94,10,8,2,22,12,28,0.01,6,Snow,330
2013-3-26,37,27,17,21,19,12,86,67,48,30.34,30.30,30.24,10,10,10,15,8,18,0.00,1,,283
2013-3-27,46,34,23,27,22,18,80,62,37,30.35,30.31,30.26,10,10,10,8,4,,0.00,0,,150
2013-3-28,57,42,28,34,27,23,86,60,33,30.31,30.27,30.21,10,10,10,13,6,18,0.00,1,,113
2013-3-29,62,47,32,34,29,25,81,54,24,30.27,30.22,30.15,10,10,10,10,6,,0.00,0,,117
2013-3-30,51,46,41,48,41,32,93,79,61,30.13,29.97,29.87,10,7,0,16,7,22,0.14,6,Fog-Rain,166
2013-3-31,55,44,33,43,30,10,93,65,18,30.08,29.93,29.88,10,6,0,24,9,34,0.01,6,Fog-Rain,307